EGGP/LPL METAR and TAF weather

Enter ICAO airport designator
Station Type Date Time Source
EGGP METAR 2018/10/19 15:20 UTC NOAA

EGGP 191520Z 31006KT 9999 FEW031 15/10 Q1025


Station Type Date Time Source
EGGP Decoded METAR 2018/10/19 15:20 UTC NOAA

Liverpool Airport , United Kingdom (EGGP) 53-20N 002-51W
Oct 19, 2018 - 11:20 AM EDT / 2018.10.19 1520 UTC
Wind: from the NW (310 degrees) at 7 MPH (6 KT):0
Visibility: greater than 7 mile(s):0
Sky conditions: mostly clear
Temperature: 59 F (15 C)
Dew Point: 50 F (10 C)
Relative Humidity: 72%
Pressure (altimeter): 30.27 in. Hg (1025 hPa)
ob: EGGP 191520Z 31006KT 9999 FEW031 15/10 Q1025
cycle: 15

Station Type Date Time Source
EGGP TAF 2018/10/19 12:09 UTC NOAA

TAF EGGP 191057Z 1912/2012 18005KT 9999 FEW035
TEMPO 2000/2010 3000 BR MIFG


Example: see airport list